createdAt,value
2018-01-05T00:00:29.925Z,90.52
2018-01-05T00:01:29.923Z,90.24
2018-01-05T00:02:29.910Z,91.28
2018-01-05T00:03:29.917Z,90.52
2018-01-05T00:04:29.914Z,90.33
2018-01-05T00:05:29.909Z,89.95
2018-01-05T00:06:29.954Z,89.20
2018-01-05T00:07:29.890Z,88.91
2018-01-05T00:08:29.896Z,88.62
2018-01-05T00:09:29.897Z,87.68
2018-01-05T00:10:29.890Z,87.49
2018-01-05T00:11:29.889Z,87.68
2018-01-05T00:12:29.884Z,87.11
2018-01-05T00:13:29.881Z,86.82
2018-01-05T00:14:29.878Z,87.39
2018-01-05T00:15:29.870Z,87.49
2018-01-05T00:16:29.859Z,87.58
2018-01-05T00:17:29.866Z,87.39
2018-01-05T00:18:29.853Z,86.72
2018-01-05T00:19:29.857Z,86.82
2018-01-05T00:20:29.844Z,86.91
2018-01-05T00:21:29.849Z,86.72
2018-01-05T00:22:29.836Z,86.44
2018-01-05T00:23:29.844Z,86.91
2018-01-05T00:24:29.837Z,86.91
2018-01-05T00:25:29.836Z,86.16
2018-01-05T00:26:29.822Z,85.30
2018-01-05T00:27:29.819Z,84.45
2018-01-05T00:28:29.821Z,85.11
2018-01-05T00:29:29.808Z,85.49
2018-01-05T00:30:29.813Z,85.68
2018-01-05T00:31:29.806Z,85.59
2018-01-05T00:32:29.802Z,85.21
2018-01-05T00:33:29.792Z,83.59
2018-01-05T00:34:29.790Z,83.69
2018-01-05T00:35:29.790Z,84.17
2018-01-05T00:36:29.792Z,84.83
2018-01-05T00:37:29.778Z,85.11
2018-01-05T00:38:29.783Z,85.40
2018-01-05T00:39:29.774Z,85.40
2018-01-05T00:40:29.767Z,85.49
2018-01-05T00:41:29.763Z,85.30
2018-01-05T00:42:29.759Z,85.11
2018-01-05T00:43:29.756Z,85.40
2018-01-05T00:44:29.752Z,85.59
2018-01-05T00:45:29.767Z,85.11
2018-01-05T00:46:29.749Z,84.17
2018-01-05T00:47:29.740Z,83.97
2018-01-05T00:48:29.736Z,83.69
2018-01-05T00:49:29.733Z,83.97
2018-01-05T00:50:29.727Z,84.17
2018-01-05T00:51:29.726Z,84.83
2018-01-05T00:52:29.723Z,84.36
2018-01-05T00:53:29.716Z,84.17
2018-01-05T00:54:29.713Z,84.45
2018-01-05T00:55:29.708Z,84.55
2018-01-05T00:56:29.704Z,84.17
2018-01-05T00:57:29.700Z,83.78
2018-01-05T00:58:29.699Z,84.07
2018-01-05T00:59:29.692Z,83.78
2018-01-05T01:00:29.689Z,83.22
2018-01-05T01:01:29.684Z,83.78
2018-01-05T01:02:29.679Z,84.17
2018-01-05T01:03:29.679Z,84.17
2018-01-05T01:04:29.678Z,83.97
2018-01-05T01:05:29.667Z,83.59
2018-01-05T01:06:29.666Z,83.97
2018-01-05T01:07:29.662Z,82.74
2018-01-05T01:08:29.657Z,82.65
2018-01-05T01:09:29.652Z,82.93
2018-01-05T01:10:29.653Z,82.46
2018-01-05T01:11:29.645Z,82.36
2018-01-05T01:12:29.642Z,82.46
2018-01-05T01:13:29.640Z,83.03
2018-01-05T01:14:29.634Z,82.74
2018-01-05T01:15:29.630Z,82.27
2018-01-05T01:16:29.625Z,82.55
2018-01-05T01:17:29.623Z,82.84
2018-01-05T01:18:29.618Z,82.65
2018-01-05T01:19:29.614Z,82.36
2018-01-05T01:20:29.610Z,82.46
2018-01-05T01:21:29.606Z,82.55
2018-01-05T01:22:29.603Z,82.84
2018-01-05T01:23:29.598Z,82.55
2018-01-05T01:24:29.592Z,83.03
2018-01-05T01:25:29.589Z,82.84
2018-01-05T01:26:29.586Z,82.46
2018-01-05T01:27:29.592Z,83.22
2018-01-05T01:28:29.577Z,83.31
2018-01-05T01:29:29.571Z,83.31
2018-01-05T01:30:29.570Z,83.12
2018-01-05T01:31:29.566Z,82.93
2018-01-05T01:32:29.564Z,82.84
2018-01-05T01:33:29.558Z,82.74
2018-01-05T01:34:29.554Z,82.74
2018-01-05T01:35:29.549Z,82.84
2018-01-05T01:36:29.546Z,82.74
2018-01-05T01:37:29.568Z,82.84
2018-01-05T01:38:29.539Z,82.93
2018-01-05T01:39:29.532Z,83.03
2018-01-05T01:40:29.527Z,82.74
2018-01-05T01:41:29.524Z,82.65
2018-01-05T01:42:29.524Z,82.36
2018-01-05T01:43:29.517Z,82.74
2018-01-05T01:44:29.512Z,82.46
2018-01-05T01:45:29.507Z,82.46
2018-01-05T01:46:29.505Z,83.03
2018-01-05T01:47:29.508Z,82.84
2018-01-05T01:48:29.494Z,82.93
2018-01-05T01:49:29.493Z,83.03
2018-01-05T01:50:29.488Z,82.17
2018-01-05T01:51:29.498Z,82.08
2018-01-05T01:52:29.480Z,82.74
2018-01-05T01:53:29.483Z,82.36
2018-01-05T01:54:29.471Z,82.42
2018-01-05T01:55:29.468Z,81.60
2018-01-05T01:56:29.462Z,82.08
2018-01-05T01:57:29.461Z,81.79
2018-01-05T01:58:29.456Z,81.79
2018-01-05T01:59:29.455Z,81.75
2018-01-05T02:00:29.446Z,82.55
2018-01-05T02:01:29.442Z,82.42
2018-01-05T02:02:29.471Z,82.32
2018-01-05T02:03:29.435Z,81.85
2018-01-05T02:04:29.430Z,81.88
2018-01-05T02:05:29.426Z,81.70
2018-01-05T02:06:29.422Z,81.60
2018-01-05T02:07:29.414Z,81.23
2018-01-05T02:08:29.412Z,81.41
2018-01-05T02:09:29.429Z,81.88
2018-01-05T02:10:29.407Z,82.65
2018-01-05T02:11:29.399Z,81.60
2018-01-05T02:12:29.396Z,81.70
2018-01-05T02:13:29.394Z,82.42
2018-01-05T02:14:29.388Z,82.70
2018-01-05T02:15:29.382Z,82.65
2018-01-05T02:16:29.377Z,82.36
2018-01-05T02:17:29.378Z,82.74
2018-01-05T02:18:29.371Z,82.51
2018-01-05T02:19:29.368Z,83.08
2018-01-05T02:20:29.362Z,82.89
2018-01-05T02:21:29.355Z,82.89
2018-01-05T02:22:29.352Z,82.89
2018-01-05T02:23:29.351Z,82.79
2018-01-05T02:24:29.344Z,83.27
2018-01-05T02:25:29.340Z,82.79
2018-01-05T02:26:29.337Z,82.79
2018-01-05T02:27:29.337Z,82.98
2018-01-05T02:28:29.330Z,82.70
2018-01-05T02:29:29.326Z,83.03
2018-01-05T02:30:29.320Z,82.74
2018-01-05T02:31:29.316Z,82.36
2018-01-05T02:32:29.313Z,82.55
2018-01-05T02:33:29.310Z,82.27
2018-01-05T02:34:29.306Z,82.36
2018-01-05T02:35:29.308Z,81.79
2018-01-05T02:36:29.299Z,82.93
2018-01-05T02:37:29.290Z,82.36
2018-01-05T02:38:29.290Z,82.42
2018-01-05T02:39:29.286Z,81.79
2018-01-05T02:40:29.281Z,81.98
2018-01-05T02:41:29.281Z,81.41
2018-01-05T02:42:29.268Z,81.51
2018-01-05T02:43:29.263Z,81.32
2018-01-05T02:44:29.259Z,81.32
2018-01-05T02:45:29.253Z,80.65
2018-01-05T02:46:29.252Z,80.18
2018-01-05T02:47:29.250Z,79.52
2018-01-05T02:48:29.241Z,80.27
2018-01-05T02:49:29.238Z,81.41
2018-01-05T02:50:29.234Z,81.23
2018-01-05T02:51:29.230Z,81.04
2018-01-05T02:52:29.225Z,80.37
2018-01-05T02:53:29.222Z,80.56
2018-01-05T02:54:29.217Z,79.61
2018-01-05T02:55:29.213Z,80.46
2018-01-05T02:56:29.209Z,79.52
2018-01-05T02:57:29.204Z,79.71
2018-01-05T02:58:29.200Z,80.18
2018-01-05T02:59:29.196Z,79.99
2018-01-05T03:00:29.192Z,80.27
2018-01-05T03:01:29.186Z,79.90
2018-01-05T03:02:29.180Z,79.99
2018-01-05T03:03:29.179Z,80.65
2018-01-05T03:04:29.174Z,80.75
2018-01-05T03:05:29.169Z,80.46
2018-01-05T03:06:29.165Z,80.37
2018-01-05T03:07:29.161Z,80.94
2018-01-05T03:08:29.154Z,80.84
2018-01-05T03:09:29.150Z,80.84
2018-01-05T03:10:29.149Z,80.56
2018-01-05T03:11:29.160Z,80.65
2018-01-05T03:12:29.140Z,80.90
2018-01-05T03:13:29.139Z,81.27
2018-01-05T03:14:29.129Z,80.99
2018-01-05T03:15:29.126Z,80.80
2018-01-05T03:16:29.142Z,81.47
2018-01-05T03:17:29.116Z,81.56
2018-01-05T03:18:29.114Z,81.75
2018-01-05T03:19:29.107Z,81.66
2018-01-05T03:20:29.106Z,81.56
2018-01-05T03:21:29.100Z,81.27
2018-01-05T03:22:29.098Z,80.80
2018-01-05T03:23:29.091Z,81.27
2018-01-05T03:24:29.085Z,79.52
2018-01-05T03:25:29.082Z,79.23
2018-01-05T03:26:29.079Z,79.90
2018-01-05T03:27:29.075Z,79.61
2018-01-05T03:28:29.070Z,79.66
2018-01-05T03:29:29.065Z,80.27
2018-01-05T03:30:29.061Z,80.24
2018-01-05T03:31:29.060Z,80.24
2018-01-05T03:32:29.052Z,80.43
2018-01-05T03:33:29.045Z,80.04
2018-01-05T03:34:29.044Z,80.33
2018-01-05T03:35:29.041Z,80.43
2018-01-05T03:36:29.035Z,80.24
2018-01-05T03:37:29.031Z,80.33
2018-01-05T03:38:29.025Z,80.04
2018-01-05T03:39:29.022Z,79.76
2018-01-05T03:40:29.019Z,79.71
2018-01-05T03:41:29.014Z,79.85
2018-01-05T03:42:29.010Z,79.99
2018-01-05T03:43:29.005Z,80.33
2018-01-05T03:44:29.001Z,80.52
2018-01-05T03:45:28.999Z,80.04
2018-01-05T03:46:28.990Z,80.62
2018-01-05T03:47:28.993Z,80.43
2018-01-05T03:48:28.981Z,80.04
2018-01-05T03:49:28.978Z,79.57
2018-01-05T03:50:28.972Z,79.76
2018-01-05T03:51:28.968Z,79.85
2018-01-05T03:52:28.966Z,79.57
2018-01-05T03:53:28.970Z,79.76
2018-01-05T03:54:28.959Z,79.66
2018-01-05T03:55:28.956Z,79.66
2018-01-05T03:56:28.946Z,79.66
2018-01-05T03:57:28.944Z,80.43
2018-01-05T03:58:28.938Z,80.90
2018-01-05T03:59:28.934Z,80.99
2018-01-05T04:00:28.928Z,80.99
2018-01-05T04:01:28.926Z,81.18
2018-01-05T04:02:28.922Z,81.75
2018-01-05T04:03:28.917Z,81.27
2018-01-05T04:04:28.916Z,81.75
2018-01-05T04:05:28.918Z,81.37
2018-01-05T04:06:28.904Z,81.37
2018-01-05T04:07:28.904Z,81.18
2018-01-05T04:08:28.895Z,81.27
2018-01-05T04:09:28.891Z,81.37
2018-01-05T04:10:28.886Z,81.94
2018-01-05T04:11:28.882Z,82.04
2018-01-05T04:12:28.877Z,82.51
2018-01-05T04:13:28.872Z,82.70
2018-01-05T04:14:28.866Z,82.70
2018-01-05T04:15:28.863Z,82.60
2018-01-05T04:16:28.861Z,82.51
2018-01-05T04:17:28.859Z,83.27
2018-01-05T04:18:28.852Z,83.27
2018-01-05T04:19:28.847Z,83.36
2018-01-05T04:20:28.842Z,83.36
2018-01-05T04:21:28.837Z,83.36
2018-01-05T04:22:28.834Z,83.94
2018-01-05T04:23:28.827Z,83.84
2018-01-05T04:24:28.822Z,84.03
2018-01-05T04:25:28.818Z,84.12
2018-01-05T04:26:28.814Z,83.84
2018-01-05T04:27:28.815Z,84.78
2018-01-05T04:28:28.804Z,84.46
2018-01-05T04:29:28.801Z,84.55
2018-01-05T04:30:28.796Z,84.22
2018-01-05T04:31:28.794Z,84.03
2018-01-05T04:32:28.785Z,84.22
2018-01-05T04:33:28.781Z,84.41
2018-01-05T04:34:28.780Z,84.41
2018-01-05T04:35:28.772Z,83.74
2018-01-05T04:36:28.767Z,83.94
2018-01-05T04:37:28.765Z,84.65
2018-01-05T04:38:28.763Z,84.41
2018-01-05T04:39:28.754Z,84.55
2018-01-05T04:40:28.747Z,84.55
2018-01-05T04:41:28.745Z,84.36
2018-01-05T04:42:28.741Z,84.94
2018-01-05T04:43:28.739Z,84.50
2018-01-05T04:44:28.731Z,84.50
2018-01-05T04:45:28.727Z,84.59
2018-01-05T04:46:28.722Z,84.69
2018-01-05T04:47:28.717Z,84.59
2018-01-05T04:48:28.711Z,84.55
2018-01-05T04:49:28.708Z,84.98
2018-01-05T04:50:28.703Z,84.50
2018-01-05T04:51:28.697Z,84.94
2018-01-05T04:52:28.693Z,84.22
2018-01-05T04:53:28.688Z,84.55
2018-01-05T04:54:28.684Z,85.13
2018-01-05T04:55:28.680Z,84.46
2018-01-05T04:56:28.673Z,84.59
2018-01-05T04:57:28.670Z,84.50
2018-01-05T04:58:28.668Z,84.22
2018-01-05T04:59:28.661Z,83.94
2018-01-05T05:00:28.655Z,84.12
2018-01-05T05:01:28.650Z,83.27
2018-01-05T05:02:28.647Z,82.98
2018-01-05T05:03:28.643Z,83.74
2018-01-05T05:04:28.637Z,83.94
2018-01-05T05:05:28.638Z,83.84
2018-01-05T05:06:28.627Z,84.03
2018-01-05T05:07:28.621Z,83.08
2018-01-05T05:08:28.619Z,83.36
2018-01-05T05:09:28.615Z,83.36
2018-01-05T05:10:28.609Z,83.08
2018-01-05T05:11:28.603Z,82.98
2018-01-05T05:12:28.601Z,83.55
2018-01-05T05:13:28.594Z,83.27
2018-01-05T05:14:28.605Z,82.98
2018-01-05T05:15:28.588Z,83.84
2018-01-05T05:16:28.578Z,84.03
2018-01-05T05:17:28.578Z,84.03
2018-01-05T05:18:28.571Z,84.03
2018-01-05T05:19:28.568Z,83.94
2018-01-05T05:20:28.563Z,83.74
2018-01-05T05:21:28.586Z,83.46
2018-01-05T05:22:28.553Z,83.65
2018-01-05T05:23:28.548Z,83.94
2018-01-05T05:24:28.552Z,84.31
2018-01-05T05:25:28.539Z,83.74
2018-01-05T05:26:28.558Z,83.84
2018-01-05T05:27:28.531Z,84.03
2018-01-05T05:28:28.525Z,84.03
2018-01-05T05:29:28.527Z,83.84
2018-01-05T05:30:28.516Z,84.03
2018-01-05T05:31:28.513Z,84.12
2018-01-05T05:32:28.506Z,84.50
2018-01-05T05:33:28.505Z,85.07
2018-01-05T05:34:28.498Z,84.59
2018-01-05T05:35:28.494Z,85.07
2018-01-05T05:36:28.497Z,85.17
2018-01-05T05:37:28.484Z,85.36
2018-01-05T05:38:28.485Z,85.55
2018-01-05T05:39:28.476Z,85.55
2018-01-05T05:40:28.471Z,85.83
2018-01-05T05:41:28.466Z,86.40
2018-01-05T05:42:28.466Z,86.40
2018-01-05T05:43:28.458Z,87.92
2018-01-05T05:44:28.465Z,88.20
2018-01-05T05:45:28.457Z,88.68
2018-01-05T05:46:28.444Z,88.48
2018-01-05T05:47:28.440Z,88.58
2018-01-05T05:48:28.436Z,88.77
2018-01-05T05:49:28.432Z,89.43
2018-01-05T05:50:28.427Z,89.43
2018-01-05T05:51:28.422Z,89.34
2018-01-05T05:52:28.418Z,89.25
2018-01-05T05:53:28.414Z,89.25
2018-01-05T05:54:28.417Z,89.34
2018-01-05T05:55:28.405Z,88.87
2018-01-05T05:56:28.401Z,88.68
2018-01-05T05:57:28.400Z,89.34
2018-01-05T05:58:28.392Z,89.06
2018-01-05T05:59:28.386Z,88.58
2018-01-05T06:00:28.380Z,89.25
2018-01-05T06:01:28.377Z,89.53
2018-01-05T06:02:28.379Z,89.81
2018-01-05T06:03:28.371Z,90.48
2018-01-05T06:04:28.365Z,90.76
2018-01-05T06:05:28.360Z,90.86
2018-01-05T06:06:28.356Z,91.05
2018-01-05T06:07:28.359Z,91.80
2018-01-05T06:08:28.362Z,92.47
2018-01-05T06:09:28.344Z,92.76
2018-01-05T06:10:28.338Z,93.23
2018-01-05T06:11:28.334Z,93.04
2018-01-05T06:12:28.332Z,93.04
2018-01-05T06:13:28.329Z,92.47
2018-01-05T06:14:28.321Z,92.85
2018-01-05T06:15:28.315Z,92.94
2018-01-05T06:16:28.314Z,93.61
2018-01-05T06:17:28.320Z,93.80
2018-01-05T06:18:28.304Z,94.08
2018-01-05T06:19:28.300Z,94.27
2018-01-05T06:20:28.293Z,94.65
2018-01-05T06:21:28.290Z,94.84
2018-01-05T06:22:28.287Z,95.03
2018-01-05T06:23:28.282Z,94.56
2018-01-05T06:24:28.277Z,95.03
2018-01-05T06:25:28.273Z,95.50
2018-01-05T06:26:28.270Z,95.41
2018-01-05T06:27:28.267Z,95.50
2018-01-05T06:28:28.258Z,95.79
2018-01-05T06:29:28.261Z,95.41
2018-01-05T06:30:28.251Z,95.03
2018-01-05T06:31:28.247Z,95.22
2018-01-05T06:32:28.241Z,95.03
2018-01-05T06:33:28.239Z,95.41
2018-01-05T06:34:28.264Z,95.50
2018-01-05T06:35:28.228Z,95.88
2018-01-05T06:36:28.276Z,96.17
2018-01-05T06:37:28.222Z,95.98
2018-01-05T06:38:28.214Z,96.55
2018-01-05T06:39:28.219Z,96.92
2018-01-05T06:40:28.205Z,96.92
2018-01-05T06:41:28.200Z,97.02
2018-01-05T06:42:28.199Z,96.92
2018-01-05T06:43:28.193Z,95.88
2018-01-05T06:44:28.189Z,95.98
2018-01-05T06:45:28.184Z,96.36
2018-01-05T06:46:28.182Z,96.17
2018-01-05T06:47:28.176Z,96.36
2018-01-05T06:48:28.176Z,96.55
2018-01-05T06:49:28.167Z,96.64
2018-01-05T06:50:28.196Z,96.73
2018-01-05T06:51:28.157Z,96.92
2018-01-05T06:52:28.153Z,96.64
2018-01-05T06:53:28.148Z,96.64
2018-01-05T06:54:28.149Z,96.73
2018-01-05T06:55:28.140Z,97.12
2018-01-05T06:56:28.136Z,96.92
2018-01-05T06:57:28.132Z,96.73
2018-01-05T06:58:28.128Z,96.55
2018-01-05T06:59:28.124Z,96.73
2018-01-05T07:00:28.120Z,96.73
2018-01-05T07:01:28.116Z,97.12
2018-01-05T07:02:28.125Z,97.02
2018-01-05T07:03:28.105Z,96.64
2018-01-05T07:04:28.100Z,96.83
2018-01-05T07:05:28.098Z,97.02
2018-01-05T07:06:28.093Z,96.73
2018-01-05T07:07:28.098Z,97.12
2018-01-05T07:08:28.122Z,97.21
2018-01-05T07:09:28.079Z,97.21
2018-01-05T07:10:28.076Z,97.02
2018-01-05T07:11:28.087Z,97.21
2018-01-05T07:12:28.068Z,96.55
2018-01-05T07:13:28.063Z,97.21
2018-01-05T07:14:28.060Z,97.69
2018-01-05T07:15:28.057Z,97.88
2018-01-05T07:16:28.052Z,98.25
2018-01-05T07:17:28.045Z,98.54
2018-01-05T07:18:28.040Z,98.16
2018-01-05T07:19:28.036Z,97.59
2018-01-05T07:20:28.034Z,97.69
2018-01-05T07:21:28.029Z,98.07
2018-01-05T07:22:28.025Z,97.59
2018-01-05T07:23:28.022Z,98.16
2018-01-05T07:24:28.019Z,98.63
2018-01-05T07:25:28.010Z,98.07
2018-01-05T07:26:28.010Z,98.63
2018-01-05T07:27:28.001Z,97.97
2018-01-05T07:28:27.996Z,98.25
2018-01-05T07:29:27.993Z,98.44
2018-01-05T07:30:27.997Z,98.07
2018-01-05T07:31:27.984Z,98.35
2018-01-05T07:32:27.980Z,98.82
2018-01-05T07:33:27.975Z,99.49
2018-01-05T07:34:27.970Z,98.54
2018-01-05T07:35:27.973Z,98.16
2018-01-05T07:36:27.962Z,98.87
2018-01-05T07:37:27.967Z,99.26
2018-01-05T07:38:27.955Z,98.44
2018-01-05T07:39:27.965Z,98.40
2018-01-05T07:40:27.943Z,99.26
2018-01-05T07:41:27.981Z,98.30
2018-01-05T07:42:27.973Z,98.78
2018-01-05T07:43:27.933Z,98.78
2018-01-05T07:44:27.930Z,98.87
2018-01-05T07:45:27.923Z,98.21
2018-01-05T07:46:27.921Z,99.26
2018-01-05T07:47:27.916Z,98.30
2018-01-05T07:48:27.912Z,98.40
2018-01-05T07:49:27.906Z,98.97
2018-01-05T07:50:27.905Z,99.06
2018-01-05T07:51:27.897Z,98.78
2018-01-05T07:52:27.901Z,98.87
2018-01-05T07:53:27.889Z,99.26
2018-01-05T07:54:27.887Z,99.06
2018-01-05T07:55:27.883Z,98.97
2018-01-05T07:56:27.880Z,98.97
2018-01-05T07:57:27.875Z,98.97
2018-01-05T07:58:27.885Z,99.06
2018-01-05T07:59:27.866Z,99.06
2018-01-05T08:00:27.862Z,99.06
2018-01-05T08:01:27.859Z,99.06
2018-01-05T08:02:27.853Z,98.87
2018-01-05T08:03:27.850Z,99.35
2018-01-05T08:04:27.844Z,99.16
2018-01-05T08:05:27.844Z,99.35
2018-01-05T08:06:27.832Z,99.54
2018-01-05T08:07:27.834Z,99.99
2018-01-05T08:08:27.827Z,99.73
2018-01-05T08:09:27.824Z,99.26
2018-01-05T08:10:27.820Z,99.35
2018-01-05T08:11:27.832Z,98.49
2018-01-05T08:12:27.813Z,98.97
2018-01-05T08:13:27.809Z,98.97
2018-01-05T08:14:27.805Z,99.26
2018-01-05T08:15:27.800Z,98.59
2018-01-05T08:16:27.795Z,99.44
2018-01-05T08:17:27.796Z,99.06
2018-01-05T08:18:27.788Z,99.06
2018-01-05T08:19:27.801Z,98.30
2018-01-05T08:20:27.796Z,98.49
2018-01-05T08:21:27.777Z,99.06
2018-01-05T08:22:27.790Z,98.87
2018-01-05T08:23:27.771Z,98.59
2018-01-05T08:24:27.768Z,98.87
2018-01-05T08:25:27.766Z,98.78
2018-01-05T08:26:27.768Z,99.16
2018-01-05T08:27:27.754Z,99.06
2018-01-05T08:28:27.748Z,98.87
2018-01-05T08:29:27.761Z,99.40
2018-01-05T08:30:27.742Z,98.92
2018-01-05T08:31:27.739Z,98.11
2018-01-05T08:32:27.733Z,98.92
2018-01-05T08:33:27.730Z,99.68
2018-01-05T08:34:27.733Z,98.54
2018-01-05T08:35:27.726Z,98.54
2018-01-05T08:36:27.718Z,98.26
2018-01-05T08:37:27.716Z,98.45
2018-01-05T08:38:27.715Z,98.26
2018-01-05T08:39:27.716Z,98.26
2018-01-05T08:40:27.704Z,98.83
2018-01-05T08:41:27.702Z,98.64
2018-01-05T08:42:27.698Z,98.26
2018-01-05T08:43:27.703Z,98.73
2018-01-05T08:44:27.690Z,98.16
2018-01-05T08:45:27.694Z,98.16
2018-01-05T08:46:27.684Z,98.26
2018-01-05T08:47:27.678Z,98.16
2018-01-05T08:48:27.690Z,97.88
2018-01-05T08:49:27.683Z,98.07
2018-01-05T08:50:27.670Z,98.35
2018-01-05T08:51:27.666Z,98.54
2018-01-05T08:52:27.667Z,98.54
2018-01-05T08:53:27.659Z,99.02
2018-01-05T08:54:27.655Z,99.40
2018-01-05T08:55:27.666Z,98.92
2018-01-05T08:56:27.645Z,99.30
2018-01-05T08:57:27.646Z,99.40
2018-01-05T08:58:27.645Z,98.92
2018-01-05T08:59:27.649Z,99.30
2018-01-05T09:00:27.638Z,98.83
2018-01-05T09:01:27.632Z,98.92
2018-01-05T09:02:27.628Z,99.30
2018-01-05T09:03:27.627Z,98.54
2018-01-05T09:04:27.623Z,98.92
2018-01-05T09:05:27.620Z,98.92
2018-01-05T09:06:27.623Z,98.16
2018-01-05T09:07:27.613Z,99.40
2018-01-05T09:08:27.617Z,99.40
2018-01-05T09:09:27.606Z,99.58
2018-01-05T09:10:27.601Z,99.30
2018-01-05T09:11:27.600Z,98.83
2018-01-05T09:12:27.596Z,99.58
2018-01-05T09:13:27.602Z,99.97
2018-01-05T09:14:27.592Z,99.97
2018-01-05T09:15:27.586Z,99.99
2018-01-05T09:16:27.585Z,99.30
2018-01-05T09:17:27.620Z,99.49
2018-01-05T09:18:27.578Z,99.77
2018-01-05T09:19:27.580Z,99.99
2018-01-05T09:20:27.577Z,99.87
2018-01-05T09:21:27.567Z,99.99
2018-01-05T09:22:27.566Z,99.99
2018-01-05T09:23:27.559Z,99.99
2018-01-05T09:24:27.562Z,99.99
2018-01-05T09:25:27.555Z,99.99
2018-01-05T09:26:27.556Z,99.99
2018-01-05T09:27:27.547Z,99.99
2018-01-05T09:28:27.543Z,99.99
2018-01-05T09:29:27.547Z,99.99
2018-01-05T09:30:27.556Z,99.99
2018-01-05T09:31:27.537Z,99.99
2018-01-05T09:32:27.535Z,99.83
2018-01-05T09:33:27.532Z,99.92
2018-01-05T09:34:27.528Z,99.99
2018-01-05T09:35:27.526Z,99.87
2018-01-05T09:36:27.525Z,99.99
2018-01-05T09:37:27.518Z,99.99
2018-01-05T09:38:27.517Z,99.99
2018-01-05T09:39:27.534Z,99.99
2018-01-05T09:40:27.509Z,99.92
2018-01-05T09:41:27.515Z,99.97
2018-01-05T09:42:27.507Z,99.99
2018-01-05T09:43:27.501Z,99.83
2018-01-05T09:44:27.498Z,99.99
2018-01-05T09:45:27.494Z,99.99
2018-01-05T09:46:27.494Z,99.99
2018-01-05T09:47:27.490Z,99.99
2018-01-05T09:48:27.544Z,99.99
2018-01-05T09:49:27.482Z,99.99
2018-01-05T09:50:27.481Z,99.99
2018-01-05T09:51:27.477Z,99.92
2018-01-05T09:52:27.477Z,99.99
2018-01-05T09:53:27.472Z,99.64
2018-01-05T09:54:27.471Z,99.99
2018-01-05T09:55:27.472Z,99.83
2018-01-05T09:56:27.463Z,99.99
2018-01-05T09:57:27.514Z,99.83
2018-01-05T09:58:27.459Z,99.99
2018-01-05T09:59:27.453Z,99.99
2018-01-05T10:00:27.453Z,99.99
2018-01-05T10:01:27.449Z,99.99
2018-01-05T10:02:27.451Z,99.99
2018-01-05T10:03:27.442Z,99.99
2018-01-05T10:04:27.443Z,99.99
2018-01-05T10:05:27.438Z,99.99
2018-01-05T10:06:27.437Z,99.99
2018-01-05T10:07:27.436Z,99.99
2018-01-05T10:08:27.430Z,99.99
2018-01-05T10:09:27.428Z,99.99
2018-01-05T10:10:27.422Z,99.99
2018-01-05T10:11:27.422Z,99.99
2018-01-05T10:12:27.418Z,99.99
2018-01-05T10:13:27.421Z,99.99
2018-01-05T10:14:27.413Z,99.99
2018-01-05T10:15:27.411Z,99.99
2018-01-05T10:16:27.421Z,99.99
2018-01-05T10:17:27.405Z,99.99
2018-01-05T10:18:27.411Z,99.99
2018-01-05T10:19:27.401Z,99.99
2018-01-05T10:20:27.408Z,99.99
2018-01-05T10:21:27.404Z,99.99
2018-01-05T10:22:27.393Z,99.99
2018-01-05T10:23:27.389Z,99.99
2018-01-05T10:24:27.386Z,99.99
2018-01-05T10:25:27.386Z,99.99
2018-01-05T10:26:27.382Z,99.99
2018-01-05T10:27:27.380Z,99.99
2018-01-05T10:28:27.376Z,99.99
2018-01-05T10:29:27.374Z,99.99
2018-01-05T10:30:27.371Z,99.99
2018-01-05T10:31:27.370Z,99.99
2018-01-05T10:32:27.363Z,99.99
2018-01-05T10:33:27.377Z,99.99
2018-01-05T10:34:27.362Z,99.99
2018-01-05T10:35:27.361Z,99.99
2018-01-05T10:36:27.360Z,99.99
2018-01-05T10:37:27.353Z,99.99
2018-01-05T10:38:27.353Z,99.99
2018-01-05T10:39:27.349Z,99.99
2018-01-05T10:40:27.343Z,99.99
2018-01-05T10:41:27.343Z,99.99
2018-01-05T10:42:27.342Z,99.99
2018-01-05T10:43:27.341Z,99.99
2018-01-05T10:44:27.337Z,99.99
2018-01-05T10:45:27.337Z,99.99
2018-01-05T10:46:27.337Z,99.99
2018-01-05T10:47:27.329Z,99.99
2018-01-05T10:48:27.326Z,99.99
2018-01-05T10:49:27.324Z,99.99
2018-01-05T10:50:27.321Z,99.99
2018-01-05T10:51:27.319Z,99.99
2018-01-05T10:52:27.316Z,99.99
2018-01-05T10:53:27.323Z,99.99
2018-01-05T10:54:27.314Z,99.99
2018-01-05T10:55:27.313Z,99.99
2018-01-05T10:56:27.315Z,99.99
2018-01-05T10:57:27.311Z,99.99
2018-01-05T10:58:27.303Z,99.99
2018-01-05T10:59:27.301Z,99.99
2018-01-05T11:00:27.298Z,99.99
2018-01-05T11:01:27.297Z,99.99
2018-01-05T11:02:27.294Z,99.99
2018-01-05T11:03:27.293Z,99.99
2018-01-05T11:04:27.292Z,99.99
2018-01-05T11:05:27.289Z,99.99
2018-01-05T11:06:27.301Z,99.99
2018-01-05T11:07:27.284Z,99.99
2018-01-05T11:08:27.287Z,99.99
2018-01-05T11:09:27.279Z,99.99
2018-01-05T11:10:27.278Z,99.99
2018-01-05T11:11:27.276Z,99.99
2018-01-05T11:12:27.270Z,99.92
2018-01-05T11:13:27.270Z,98.79
2018-01-05T11:14:27.268Z,99.16
2018-01-05T11:15:27.265Z,98.88
2018-01-05T11:16:27.263Z,99.26
2018-01-05T11:17:27.283Z,98.97
2018-01-05T11:18:27.257Z,99.44
2018-01-05T11:19:27.260Z,98.79
2018-01-05T11:20:27.253Z,99.83
2018-01-05T11:21:27.252Z,99.44
2018-01-05T11:22:27.248Z,98.31
2018-01-05T11:23:27.246Z,96.88
2018-01-05T11:24:27.244Z,96.69
2018-01-05T11:25:27.243Z,95.84
2018-01-05T11:26:27.239Z,96.50
2018-01-05T11:27:27.235Z,97.17
2018-01-05T11:28:27.233Z,96.12
2018-01-05T11:29:27.257Z,96.98
2018-01-05T11:30:27.229Z,97.36
2018-01-05T11:31:27.227Z,97.92
2018-01-05T11:32:27.224Z,96.41
2018-01-05T11:33:27.219Z,95.94
2018-01-05T11:34:27.217Z,96.22
2018-01-05T11:35:27.220Z,96.12
2018-01-05T11:36:27.213Z,96.50
2018-01-05T11:37:27.208Z,96.88
2018-01-05T11:38:27.211Z,97.07
2018-01-05T11:39:27.204Z,97.83
2018-01-05T11:40:27.202Z,96.88
2018-01-05T11:41:27.201Z,97.07
2018-01-05T11:42:27.197Z,97.36
2018-01-05T11:43:27.195Z,97.92
2018-01-05T11:44:27.192Z,97.74
2018-01-05T11:45:27.189Z,97.27
2018-01-05T11:46:27.185Z,96.79
2018-01-05T11:47:27.182Z,96.69
2018-01-05T11:48:27.180Z,96.69
2018-01-05T11:49:27.179Z,96.69
2018-01-05T11:50:27.177Z,97.36
2018-01-05T11:51:27.174Z,97.64
2018-01-05T11:52:27.170Z,97.74
2018-01-05T11:53:27.167Z,96.88
2018-01-05T11:54:27.174Z,96.69
2018-01-05T11:55:27.162Z,97.45
2018-01-05T11:56:27.190Z,97.74
2018-01-05T11:57:27.159Z,97.17
2018-01-05T11:58:27.154Z,96.41
2018-01-05T11:59:27.157Z,95.94
2018-01-05T12:00:27.161Z,96.88
2018-01-05T12:01:27.155Z,96.41
2018-01-05T12:02:27.145Z,97.17
2018-01-05T12:03:27.141Z,97.27
2018-01-05T12:04:27.137Z,96.41
2018-01-05T12:05:27.135Z,96.22
2018-01-05T12:06:27.135Z,96.03
2018-01-05T12:07:27.141Z,95.55
2018-01-05T12:08:27.153Z,96.31
2018-01-05T12:09:27.124Z,96.31
2018-01-05T12:10:27.130Z,95.27
2018-01-05T12:11:27.120Z,95.27
2018-01-05T12:12:27.123Z,94.51
2018-01-05T12:13:27.118Z,94.51
2018-01-05T12:14:27.111Z,95.17
2018-01-05T12:15:27.110Z,95.65
2018-01-05T12:16:27.124Z,94.60
2018-01-05T12:17:27.101Z,94.89
2018-01-05T12:18:27.099Z,94.89
2018-01-05T12:19:27.098Z,94.60
2018-01-05T12:20:27.100Z,94.98
2018-01-05T12:21:27.092Z,95.27
2018-01-05T12:22:27.088Z,95.27
2018-01-05T12:23:27.086Z,96.03
2018-01-05T12:24:27.084Z,96.03
2018-01-05T12:25:27.080Z,96.31
2018-01-05T12:26:27.079Z,96.69
2018-01-05T12:27:27.083Z,95.84
2018-01-05T12:28:27.077Z,96.03
2018-01-05T12:29:27.069Z,95.94
2018-01-05T12:30:27.068Z,95.27
2018-01-05T12:31:27.065Z,95.65
2018-01-05T12:32:27.061Z,95.65
2018-01-05T12:33:27.059Z,95.84
2018-01-05T12:34:27.056Z,95.94
2018-01-05T12:35:27.067Z,96.31
2018-01-05T12:36:27.051Z,95.65
2018-01-05T12:37:27.049Z,94.89
2018-01-05T12:38:27.043Z,94.98
2018-01-05T12:39:27.043Z,94.98
2018-01-05T12:40:27.039Z,94.60
2018-01-05T12:41:27.036Z,95.36
2018-01-05T12:42:27.048Z,95.84
2018-01-05T12:43:27.031Z,95.94
2018-01-05T12:44:27.027Z,96.12
2018-01-05T12:45:27.026Z,95.65
2018-01-05T12:46:27.033Z,95.46
2018-01-05T12:47:27.025Z,95.17
2018-01-05T12:48:27.017Z,95.08
2018-01-05T12:49:27.016Z,95.27
2018-01-05T12:50:27.016Z,95.94
2018-01-05T12:51:27.013Z,95.27
2018-01-05T12:52:27.007Z,94.60